createdAt,value
2019-02-24T00:00:19.489Z,18.90
2019-02-24T00:01:26.989Z,18.40
2019-02-24T00:02:34.018Z,19.42
2019-02-24T00:03:39.582Z,18.40
2019-02-24T00:04:46.246Z,17.77
2019-02-24T00:05:51.378Z,17.67
2019-02-24T00:06:55.519Z,18.15
2019-02-24T00:08:06.853Z,18.42
2019-02-24T00:09:12.677Z,17.92
2019-02-24T00:10:17.797Z,17.60
2019-02-24T00:11:29.452Z,18.67
2019-02-24T00:12:34.092Z,19.05
2019-02-24T00:13:42.878Z,17.80
2019-02-24T00:14:50.666Z,18.00
2019-02-24T00:15:56.344Z,18.82
2019-02-24T00:17:02.000Z,17.77
2019-02-24T00:18:06.252Z,18.48
2019-02-24T00:19:11.383Z,18.40
2019-02-24T00:20:20.945Z,18.25
2019-02-24T00:21:28.378Z,19.77
2019-02-24T00:22:34.608Z,18.70
2019-02-24T00:23:44.917Z,19.17
2019-02-24T00:25:55.080Z,18.35
2019-02-24T00:27:06.304Z,18.17
2019-02-24T00:28:15.522Z,18.27
2019-02-24T00:29:21.217Z,19.27
2019-02-24T00:30:29.238Z,19.35
2019-02-24T00:31:35.061Z,18.85
2019-02-24T00:32:49.794Z,18.70
2019-02-24T00:33:55.536Z,16.48
2019-02-24T00:35:01.358Z,18.30
2019-02-24T00:36:09.119Z,17.60
2019-02-24T00:37:14.990Z,17.98
2019-02-24T00:38:21.831Z,17.52
2019-02-24T00:39:27.187Z,19.27
2019-02-24T00:40:31.321Z,17.75
2019-02-24T00:41:36.401Z,18.77
2019-02-24T00:42:42.351Z,17.85
2019-02-24T00:43:47.497Z,17.90
2019-02-24T00:44:51.519Z,19.20
2019-02-24T00:45:55.551Z,18.87
2019-02-24T00:47:00.971Z,18.77
2019-02-24T00:48:05.011Z,18.25
2019-02-24T00:49:10.336Z,19.00
2019-02-24T00:50:17.928Z,18.65
2019-02-24T00:51:24.177Z,18.57
2019-02-24T00:52:28.289Z,17.95
2019-02-24T00:53:33.849Z,18.77
2019-02-24T00:54:38.485Z,18.32
2019-02-24T00:55:42.502Z,18.70
2019-02-24T00:56:48.440Z,19.55
2019-02-24T00:57:54.501Z,18.57
2019-02-24T00:58:58.401Z,18.62
2019-02-24T01:00:02.400Z,18.57
2019-02-24T01:01:06.370Z,18.17
2019-02-24T01:02:10.299Z,21.10
2019-02-24T01:03:15.499Z,18.82
2019-02-24T01:04:22.719Z,18.98
2019-02-24T01:05:26.741Z,17.90
2019-02-24T01:06:30.827Z,20.45
2019-02-24T01:07:35.156Z,19.87
2019-02-24T01:08:40.827Z,18.23
2019-02-24T01:09:46.803Z,18.77
2019-02-24T01:10:53.813Z,18.95
2019-02-24T01:11:59.513Z,19.32
2019-02-24T01:13:03.513Z,18.62
2019-02-24T01:14:10.219Z,18.42
2019-02-24T01:15:14.453Z,19.50
2019-02-24T01:16:20.092Z,18.85
2019-02-24T01:17:24.097Z,19.40
2019-02-24T01:18:28.031Z,19.40
2019-02-24T01:19:33.093Z,19.67
2019-02-24T01:20:37.019Z,18.85
2019-02-24T01:21:41.021Z,18.70
2019-02-24T01:22:44.943Z,19.20
2019-02-24T01:23:50.685Z,19.60
2019-02-24T01:24:54.659Z,18.00
2019-02-24T01:25:58.627Z,18.80
2019-02-24T01:27:02.966Z,18.00
2019-02-24T01:28:07.009Z,19.67
2019-02-24T01:29:10.934Z,18.80
2019-02-24T01:30:17.505Z,19.98
2019-02-24T01:31:26.583Z,19.00
2019-02-24T01:32:27.157Z,18.77
2019-02-24T01:33:32.785Z,18.80
2019-02-24T01:34:39.848Z,19.07
2019-02-24T01:35:45.725Z,16.82
2019-02-24T01:36:51.725Z,17.57
2019-02-24T01:37:55.841Z,19.20
2019-02-24T01:39:06.269Z,17.75
2019-02-24T01:40:12.627Z,17.92
2019-02-24T01:41:23.182Z,16.82
2019-02-24T01:42:30.416Z,17.98
2019-02-24T01:43:38.759Z,18.12
2019-02-24T01:44:43.165Z,18.15
2019-02-24T01:45:49.286Z,18.00
2019-02-24T01:46:55.050Z,18.00
2019-02-24T01:48:02.019Z,16.60
2019-02-24T01:49:06.349Z,17.55
2019-02-24T01:50:12.123Z,18.23
2019-02-24T01:51:16.038Z,16.42
2019-02-24T01:52:19.944Z,17.17
2019-02-24T01:53:28.625Z,16.52
2019-02-24T01:54:36.007Z,17.10
2019-02-24T01:55:41.658Z,17.52
2019-02-24T01:56:45.827Z,16.62
2019-02-24T01:57:49.750Z,16.45
2019-02-24T01:58:55.294Z,20.32
2019-02-24T02:00:00.933Z,17.45
2019-02-24T02:01:06.413Z,17.55
2019-02-24T02:02:11.455Z,16.15
2019-02-24T02:03:15.410Z,16.40
2019-02-24T02:04:21.008Z,16.80
2019-02-24T02:05:25.741Z,17.48
2019-02-24T02:06:31.378Z,17.30
2019-02-24T02:07:35.329Z,17.12
2019-02-24T02:08:40.966Z,17.75
2019-02-24T02:09:47.839Z,17.35
2019-02-24T02:10:51.806Z,17.82
2019-02-24T02:11:55.795Z,16.52
2019-02-24T02:13:01.358Z,17.27
2019-02-24T02:14:05.711Z,17.75
2019-02-24T02:15:09.832Z,16.30
2019-02-24T02:16:15.417Z,17.80
2019-02-24T02:17:21.376Z,17.35
2019-02-24T02:18:29.683Z,16.97
2019-02-24T02:19:32.306Z,17.80
2019-02-24T02:20:36.780Z,17.95
2019-02-24T02:21:45.456Z,18.17
2019-02-24T02:22:49.970Z,17.00
2019-02-24T02:23:54.594Z,17.15
2019-02-24T02:25:00.408Z,18.00
2019-02-24T02:26:05.953Z,16.32
2019-02-24T02:27:11.251Z,17.40
2019-02-24T02:28:17.238Z,18.07
2019-02-24T02:29:23.250Z,18.45
2019-02-24T02:30:27.158Z,17.85
2019-02-24T02:31:33.002Z,18.15
2019-02-24T02:32:40.375Z,18.00
2019-02-24T02:33:44.444Z,18.02
2019-02-24T02:34:52.529Z,19.35
2019-02-24T02:35:58.144Z,17.87
2019-02-24T02:37:04.578Z,18.45
2019-02-24T02:38:08.495Z,17.12
2019-02-24T02:39:12.400Z,17.90
2019-02-24T02:40:16.331Z,19.15
2019-02-24T02:41:20.298Z,18.15
2019-02-24T02:42:24.300Z,19.37
2019-02-24T02:43:30.970Z,19.77
2019-02-24T02:44:34.964Z,19.23
2019-02-24T02:45:38.869Z,18.80
2019-02-24T02:46:42.829Z,18.80
2019-02-24T02:47:46.917Z,18.82
2019-02-24T02:48:51.031Z,20.15
2019-02-24T02:49:54.943Z,18.77
2019-02-24T02:50:58.962Z,20.80
2019-02-24T02:52:02.865Z,19.73
2019-02-24T02:53:06.827Z,18.92
2019-02-24T02:54:12.398Z,19.85
2019-02-24T02:55:16.397Z,19.23
2019-02-24T02:56:22.007Z,19.42
2019-02-24T02:57:25.925Z,20.10
2019-02-24T02:58:33.137Z,21.00
2019-02-24T02:59:37.064Z,20.82
2019-02-24T03:00:42.605Z,20.65
2019-02-24T03:01:48.219Z,21.48
2019-02-24T03:02:52.723Z,19.87
2019-02-24T03:04:02.605Z,21.10
2019-02-24T03:05:05.581Z,21.10
2019-02-24T03:06:11.203Z,21.30
2019-02-24T03:07:23.234Z,21.05
2019-02-24T03:08:48.100Z,21.50
2019-02-24T03:09:52.108Z,20.57
2019-02-24T03:10:56.145Z,22.87
2019-02-24T03:12:01.447Z,21.73
2019-02-24T03:13:05.437Z,22.52
2019-02-24T03:14:09.366Z,23.07
2019-02-24T03:15:13.314Z,20.80
2019-02-24T03:16:23.584Z,21.50
2019-02-24T03:17:27.202Z,21.95
2019-02-24T03:18:31.380Z,21.40
2019-02-24T03:19:41.105Z,21.57
2019-02-24T03:20:45.143Z,22.02
2019-02-24T03:21:52.247Z,23.02
2019-02-24T03:22:56.291Z,23.62
2019-02-24T03:24:03.506Z,22.05
2019-02-24T03:25:07.448Z,21.45
2019-02-24T03:26:13.002Z,21.75
2019-02-24T03:27:16.907Z,22.45
2019-02-24T03:28:23.146Z,22.87
2019-02-24T03:29:28.536Z,22.73
2019-02-24T03:30:32.597Z,21.52
2019-02-24T03:31:39.903Z,21.35
2019-02-24T03:32:44.486Z,22.02
2019-02-24T03:33:50.045Z,22.30
2019-02-24T03:34:54.063Z,21.48
2019-02-24T03:35:57.979Z,22.73
2019-02-24T03:37:03.594Z,22.58
2019-02-24T03:38:07.500Z,22.13
2019-02-24T03:39:11.532Z,20.95
2019-02-24T03:40:15.536Z,22.17
2019-02-24T03:41:19.709Z,22.52
2019-02-24T03:42:26.839Z,21.85
2019-02-24T03:43:40.179Z,22.73
2019-02-24T03:44:45.772Z,21.00
2019-02-24T03:45:51.068Z,22.02
2019-02-24T03:46:55.049Z,21.65
2019-02-24T03:47:59.070Z,21.35
2019-02-24T03:49:03.024Z,22.85
2019-02-24T03:50:08.569Z,21.57
2019-02-24T03:51:14.190Z,22.15
2019-02-24T03:52:18.168Z,21.70
2019-02-24T03:53:22.143Z,22.05
2019-02-24T03:54:26.156Z,22.15
2019-02-24T03:55:30.100Z,22.55
2019-02-24T03:56:35.666Z,22.00
2019-02-24T03:57:41.585Z,22.37
2019-02-24T03:58:45.573Z,22.10
2019-02-24T03:59:51.029Z,21.57
2019-02-24T04:00:55.966Z,22.50
2019-02-24T04:02:03.704Z,21.87
2019-02-24T04:03:08.386Z,22.27
2019-02-24T04:04:13.780Z,21.00
2019-02-24T04:05:19.519Z,20.95
2019-02-24T04:06:25.134Z,21.45
2019-02-24T04:07:30.356Z,22.22
2019-02-24T04:08:35.912Z,21.10
2019-02-24T04:09:46.180Z,20.75
2019-02-24T04:11:55.090Z,19.45
2019-02-24T04:13:00.117Z,21.15
2019-02-24T04:14:05.817Z,21.20
2019-02-24T04:15:09.770Z,21.45
2019-02-24T04:16:13.667Z,21.35
2019-02-24T04:17:17.635Z,21.62
2019-02-24T04:18:21.611Z,21.48
2019-02-24T04:19:25.565Z,21.05
2019-02-24T04:20:29.563Z,21.93
2019-02-24T04:21:35.131Z,21.17
2019-02-24T04:22:40.666Z,20.23
2019-02-24T04:23:44.568Z,20.88
2019-02-24T04:24:48.529Z,20.97
2019-02-24T04:25:53.346Z,21.85
2019-02-24T04:26:59.923Z,21.80
2019-02-24T04:28:03.883Z,20.80
2019-02-24T04:29:07.789Z,22.35
2019-02-24T04:30:12.327Z,22.70
2019-02-24T04:31:17.857Z,21.45
2019-02-24T04:32:26.106Z,20.55
2019-02-24T04:33:30.168Z,20.15
2019-02-24T04:34:34.095Z,20.95
2019-02-24T04:35:44.305Z,22.00
2019-02-24T04:36:46.606Z,21.95
2019-02-24T04:37:51.661Z,22.30
2019-02-24T04:38:57.370Z,21.87
2019-02-24T04:40:02.910Z,22.07
2019-02-24T04:41:06.774Z,21.10
2019-02-24T04:42:10.706Z,22.45
2019-02-24T04:43:15.108Z,22.25
2019-02-24T04:44:24.271Z,21.25
2019-02-24T04:45:28.763Z,23.07
2019-02-24T04:46:34.475Z,23.02
2019-02-24T04:47:38.354Z,22.25
2019-02-24T04:48:43.411Z,22.17
2019-02-24T04:49:47.354Z,21.50
2019-02-24T04:50:52.374Z,22.87
2019-02-24T04:51:56.896Z,24.15
2019-02-24T04:53:00.865Z,22.25
2019-02-24T04:54:09.756Z,23.95
2019-02-24T04:55:15.297Z,23.52
2019-02-24T04:56:24.309Z,22.98
2019-02-24T04:57:29.543Z,24.00
2019-02-24T04:58:35.045Z,23.80
2019-02-24T04:59:39.542Z,25.25
2019-02-24T05:00:44.815Z,23.62
2019-02-24T05:01:51.669Z,21.95
2019-02-24T05:02:57.298Z,22.58
2019-02-24T05:04:02.967Z,22.60
2019-02-24T05:05:07.314Z,22.25
2019-02-24T05:06:13.350Z,23.83
2019-02-24T05:07:24.327Z,24.60
2019-02-24T05:08:30.693Z,22.60
2019-02-24T05:09:38.452Z,23.80
2019-02-24T05:10:52.337Z,24.47
2019-02-24T05:11:56.231Z,23.90
2019-02-24T05:13:04.574Z,23.80
2019-02-24T05:14:10.074Z,23.80
2019-02-24T05:15:14.093Z,23.38
2019-02-24T05:16:19.122Z,23.25
2019-02-24T05:17:27.139Z,22.85
2019-02-24T05:18:32.242Z,23.47
2019-02-24T05:19:36.285Z,23.00
2019-02-24T05:20:40.928Z,24.00
2019-02-24T05:21:45.146Z,24.12
2019-02-24T05:22:49.110Z,22.77
2019-02-24T05:23:53.008Z,22.73
2019-02-24T05:24:56.902Z,25.27
2019-02-24T05:26:02.232Z,24.98
2019-02-24T05:27:09.339Z,22.27
2019-02-24T05:28:13.936Z,22.73
2019-02-24T05:29:20.559Z,21.80
2019-02-24T05:30:26.840Z,24.35
2019-02-24T05:31:30.735Z,24.10
2019-02-24T05:32:35.754Z,24.00
2019-02-24T05:33:41.298Z,24.87
2019-02-24T05:34:50.201Z,23.25
2019-02-24T05:35:54.151Z,22.58
2019-02-24T05:36:58.080Z,23.45
2019-02-24T05:38:01.987Z,24.20
2019-02-24T05:39:05.953Z,24.43
2019-02-24T05:40:11.435Z,22.40
2019-02-24T05:41:15.342Z,24.05
2019-02-24T05:42:20.839Z,22.58
2019-02-24T05:43:25.344Z,21.57
2019-02-24T05:44:30.946Z,24.20
2019-02-24T05:45:34.954Z,23.38
2019-02-24T05:46:40.712Z,23.20
2019-02-24T05:47:44.735Z,23.27
2019-02-24T05:48:48.633Z,24.95
2019-02-24T05:49:52.587Z,25.00
2019-02-24T05:50:58.119Z,24.20
2019-02-24T05:52:03.121Z,23.45
2019-02-24T05:53:08.126Z,22.98
2019-02-24T05:54:13.343Z,24.55
2019-02-24T05:55:18.395Z,23.22
2019-02-24T05:56:22.338Z,23.47
2019-02-24T05:57:26.316Z,25.05
2019-02-24T05:58:30.235Z,24.52
2019-02-24T05:59:35.536Z,23.98
2019-02-24T06:00:40.315Z,23.40
2019-02-24T06:01:44.290Z,24.00
2019-02-24T06:02:51.519Z,24.63
2019-02-24T06:03:55.686Z,23.62
2019-02-24T06:05:04.718Z,24.00
2019-02-24T06:06:10.361Z,24.12
2019-02-24T06:07:14.264Z,23.52
2019-02-24T06:08:18.277Z,23.00
2019-02-24T06:09:25.657Z,23.55
2019-02-24T06:10:31.213Z,24.72
2019-02-24T06:11:35.166Z,24.92
2019-02-24T06:12:40.505Z,24.35
2019-02-24T06:13:44.452Z,23.98
2019-02-24T06:14:48.507Z,24.25
2019-02-24T06:15:55.026Z,23.98
2019-02-24T06:16:58.971Z,24.37
2019-02-24T06:18:02.886Z,24.02
2019-02-24T06:19:06.917Z,26.07
2019-02-24T06:20:13.703Z,25.15
2019-02-24T06:21:17.724Z,23.92
2019-02-24T06:22:24.911Z,26.07
2019-02-24T06:23:28.883Z,23.67
2019-02-24T06:24:33.850Z,24.40
2019-02-24T06:25:37.828Z,24.10
2019-02-24T06:26:42.435Z,24.50
2019-02-24T06:27:46.404Z,24.12
2019-02-24T06:28:52.071Z,24.55
2019-02-24T06:30:04.491Z,24.18
2019-02-24T06:31:02.288Z,24.77
2019-02-24T06:32:06.259Z,26.10
2019-02-24T06:33:10.279Z,25.40
2019-02-24T06:34:14.313Z,26.12
2019-02-24T06:35:19.351Z,24.30
2019-02-24T06:36:23.509Z,24.25
2019-02-24T06:37:27.489Z,25.88
2019-02-24T06:38:31.393Z,24.47
2019-02-24T06:39:36.921Z,25.95
2019-02-24T06:40:40.959Z,24.77
2019-02-24T06:41:45.019Z,25.60
2019-02-24T06:42:49.209Z,25.82
2019-02-24T06:43:59.249Z,23.90
2019-02-24T06:45:03.795Z,25.80
2019-02-24T06:46:07.849Z,24.70
2019-02-24T06:47:11.815Z,23.50
2019-02-24T06:48:16.299Z,24.77
2019-02-24T06:49:23.682Z,25.35
2019-02-24T06:50:35.388Z,25.10
2019-02-24T06:51:35.801Z,24.70
2019-02-24T06:52:40.014Z,24.43
2019-02-24T06:53:44.009Z,25.35
2019-02-24T06:54:48.056Z,24.43
2019-02-24T06:55:55.701Z,25.40
2019-02-24T06:57:00.005Z,26.97
2019-02-24T06:58:04.097Z,26.50
2019-02-24T06:59:09.799Z,25.52
2019-02-24T07:00:16.247Z,25.60
2019-02-24T07:01:21.128Z,24.95
2019-02-24T07:02:25.122Z,25.32
2019-02-24T07:03:29.752Z,25.25
2019-02-24T07:04:35.021Z,25.70
2019-02-24T07:05:43.169Z,25.05
2019-02-24T07:06:47.275Z,25.20
2019-02-24T07:07:52.067Z,26.25
2019-02-24T07:08:56.796Z,24.67
2019-02-24T07:10:09.915Z,23.75
2019-02-24T07:11:15.871Z,23.22
2019-02-24T07:12:40.431Z,25.77
2019-02-24T07:13:46.087Z,25.27
2019-02-24T07:14:50.159Z,25.80
2019-02-24T07:15:58.358Z,24.65
2019-02-24T07:17:02.391Z,25.02
2019-02-24T07:18:08.013Z,24.10
2019-02-24T07:19:12.033Z,25.48
2019-02-24T07:20:25.105Z,24.25
2019-02-24T07:21:22.703Z,23.85
2019-02-24T07:22:27.062Z,25.27
2019-02-24T07:23:34.771Z,24.52
2019-02-24T07:24:41.044Z,25.17
2019-02-24T07:25:48.223Z,22.22
2019-02-24T07:26:58.367Z,23.18
2019-02-24T07:28:02.633Z,25.02
2019-02-24T07:29:07.596Z,23.62
2019-02-24T07:30:13.284Z,22.45
2019-02-24T07:31:19.035Z,23.22
2019-02-24T07:32:23.261Z,24.37
2019-02-24T07:33:27.297Z,24.23
2019-02-24T07:34:31.288Z,21.68
2019-02-24T07:35:44.497Z,23.32
2019-02-24T07:36:53.005Z,23.67
2019-02-24T07:37:57.633Z,22.87
2019-02-24T07:39:01.615Z,23.60
2019-02-24T07:40:05.824Z,23.83
2019-02-24T07:41:10.902Z,22.40
2019-02-24T07:42:19.130Z,23.70
2019-02-24T07:43:26.322Z,22.85
2019-02-24T07:44:32.340Z,22.27
2019-02-24T07:45:43.454Z,23.32
2019-02-24T07:46:46.938Z,24.02
2019-02-24T07:47:58.346Z,22.80
2019-02-24T07:49:05.033Z,22.77
2019-02-24T07:50:14.081Z,23.55
2019-02-24T07:51:18.459Z,23.57
2019-02-24T07:52:25.565Z,22.75
2019-02-24T07:53:29.564Z,22.80
2019-02-24T07:54:35.087Z,22.17
2019-02-24T07:55:39.005Z,22.20
2019-02-24T07:56:43.012Z,22.93
2019-02-24T07:57:47.019Z,23.77
2019-02-24T07:58:51.133Z,21.70
2019-02-24T07:59:55.307Z,21.90
2019-02-24T08:01:01.460Z,21.00
2019-02-24T08:02:06.517Z,22.35
2019-02-24T08:03:10.612Z,21.97
2019-02-24T08:04:15.886Z,22.30
2019-02-24T08:05:19.947Z,21.80
2019-02-24T08:06:23.916Z,22.15
2019-02-24T08:07:27.889Z,22.37
2019-02-24T08:08:32.916Z,22.20
2019-02-24T08:09:40.177Z,22.10
2019-02-24T08:10:44.315Z,22.40
2019-02-24T08:11:48.337Z,21.77
2019-02-24T08:12:54.385Z,22.32
2019-02-24T08:14:02.997Z,23.15
2019-02-24T08:15:08.969Z,20.85
2019-02-24T08:16:12.904Z,21.33
2019-02-24T08:17:17.641Z,21.07
2019-02-24T08:18:21.547Z,21.57
2019-02-24T08:19:25.724Z,21.02
2019-02-24T08:20:29.751Z,21.25
2019-02-24T08:21:33.677Z,20.90
2019-02-24T08:22:37.616Z,22.60
2019-02-24T08:23:41.655Z,21.65
2019-02-24T08:24:45.572Z,21.62
2019-02-24T08:25:50.260Z,21.10
2019-02-24T08:26:54.169Z,20.95
2019-02-24T08:27:58.141Z,21.37
2019-02-24T08:29:05.587Z,21.45
2019-02-24T08:30:11.548Z,21.07
2019-02-24T08:31:15.617Z,20.48
2019-02-24T08:32:24.247Z,20.92
2019-02-24T08:33:28.969Z,19.90
2019-02-24T08:34:33.459Z,20.85
2019-02-24T08:35:37.476Z,19.42
2019-02-24T08:36:42.467Z,19.48
2019-02-24T08:37:46.603Z,18.87
2019-02-24T08:38:51.772Z,21.37
2019-02-24T08:39:57.194Z,21.62
2019-02-24T08:41:01.176Z,20.35
2019-02-24T08:42:05.062Z,21.70
2019-02-24T08:43:10.361Z,19.87
2019-02-24T08:44:14.330Z,20.00
2019-02-24T08:45:19.994Z,20.27
2019-02-24T08:46:25.338Z,20.80
2019-02-24T08:47:31.863Z,19.80
2019-02-24T08:48:35.782Z,19.45
2019-02-24T08:49:42.653Z,19.57
2019-02-24T08:50:48.307Z,18.62
2019-02-24T08:51:54.315Z,19.92
2019-02-24T08:52:58.315Z,19.73
2019-02-24T08:54:02.314Z,20.75
2019-02-24T08:55:09.154Z,19.95
2019-02-24T08:56:14.727Z,19.50
2019-02-24T08:57:20.566Z,19.55
2019-02-24T08:58:25.652Z,20.88
2019-02-24T08:59:32.466Z,19.23
2019-02-24T09:00:36.680Z,19.02
2019-02-24T09:01:40.655Z,20.20
2019-02-24T09:02:46.604Z,20.37
2019-02-24T09:03:50.644Z,19.80
2019-02-24T09:04:54.641Z,20.00
2019-02-24T09:05:59.759Z,19.62
2019-02-24T09:07:03.732Z,20.52
2019-02-24T09:08:12.765Z,20.17
2019-02-24T09:09:16.877Z,18.67
2019-02-24T09:10:26.204Z,18.60
2019-02-24T09:11:29.176Z,20.50
2019-02-24T09:12:34.342Z,20.45
2019-02-24T09:13:38.396Z,20.25
2019-02-24T09:14:43.777Z,20.32
2019-02-24T09:15:47.931Z,19.17
2019-02-24T09:16:52.046Z,19.00
2019-02-24T09:17:56.025Z,18.75
2019-02-24T09:19:01.073Z,19.45
2019-02-24T09:20:09.316Z,18.85
2019-02-24T09:21:13.604Z,18.55
2019-02-24T09:22:19.629Z,18.82
2019-02-24T09:23:23.583Z,18.42
2019-02-24T09:24:27.594Z,18.57
2019-02-24T09:25:31.682Z,19.92
2019-02-24T09:26:43.436Z,18.80
2019-02-24T09:27:48.963Z,19.07
2019-02-24T09:28:53.446Z,18.25
2019-02-24T09:29:57.671Z,19.27
2019-02-24T09:31:02.820Z,18.17
2019-02-24T09:32:06.926Z,18.55
2019-02-24T09:33:11.199Z,19.25
2019-02-24T09:34:20.521Z,17.55
2019-02-24T09:35:30.701Z,18.75
2019-02-24T09:36:30.958Z,18.67
2019-02-24T09:37:34.984Z,17.37
2019-02-24T09:38:40.035Z,19.05
2019-02-24T09:39:44.216Z,17.57
2019-02-24T09:40:48.208Z,19.02
2019-02-24T09:41:52.416Z,19.30
2019-02-24T09:42:58.092Z,19.20
2019-02-24T09:44:02.159Z,18.20
2019-02-24T09:45:09.334Z,18.87
2019-02-24T09:46:14.795Z,17.82
2019-02-24T09:47:18.876Z,18.75
2019-02-24T09:48:22.803Z,18.73
2019-02-24T09:49:26.943Z,19.50
2019-02-24T09:50:32.740Z,18.42
2019-02-24T09:51:36.740Z,17.92
2019-02-24T09:52:42.591Z,18.52
2019-02-24T09:53:48.394Z,19.02
2019-02-24T09:54:54.201Z,17.85
2019-02-24T09:56:01.142Z,18.17
2019-02-24T09:57:05.618Z,18.17
2019-02-24T09:58:09.756Z,17.65
2019-02-24T09:59:14.452Z,18.77
2019-02-24T10:00:22.047Z,18.20
2019-02-24T10:01:26.038Z,17.75
2019-02-24T10:02:31.920Z,19.10
2019-02-24T10:03:41.028Z,18.27
2019-02-24T10:04:45.492Z,17.48
2019-02-24T10:05:57.498Z,18.27
2019-02-24T10:07:02.631Z,18.42
2019-02-24T10:08:08.126Z,17.40
2019-02-24T10:09:14.614Z,17.05
2019-02-24T10:10:20.257Z,18.75
2019-02-24T10:11:25.846Z,17.02
2019-02-24T10:12:31.149Z,17.67
2019-02-24T10:13:36.720Z,17.98
2019-02-24T10:14:48.078Z,16.97
2019-02-24T10:15:52.015Z,17.45
2019-02-24T10:16:56.114Z,18.42
2019-02-24T10:18:00.156Z,17.62
2019-02-24T10:19:07.299Z,17.30
2019-02-24T10:20:12.286Z,17.75
2019-02-24T10:21:16.842Z,17.70
2019-02-24T10:22:21.083Z,16.40
2019-02-24T10:23:27.125Z,17.87
2019-02-24T10:24:31.917Z,18.67
2019-02-24T10:25:38.778Z,17.40
2019-02-24T10:26:44.575Z,17.70
2019-02-24T10:27:51.791Z,19.07
2019-02-24T10:28:56.523Z,17.90
2019-02-24T10:30:01.808Z,17.57
2019-02-24T10:32:31.865Z,17.73
2019-02-24T10:33:39.182Z,17.12
2019-02-24T10:34:43.997Z,17.45
2019-02-24T10:35:50.860Z,17.17
2019-02-24T10:36:55.107Z,18.02
2019-02-24T10:38:02.873Z,18.07
2019-02-24T10:39:10.193Z,18.27
2019-02-24T10:40:21.585Z,17.75
2019-02-24T10:41:28.476Z,18.00
2019-02-24T10:42:44.783Z,18.40
2019-02-24T10:43:50.084Z,18.67
2019-02-24T10:44:54.180Z,17.73
2019-02-24T10:45:58.352Z,18.62
2019-02-24T10:47:05.031Z,19.70
2019-02-24T10:48:14.251Z,17.73
2019-02-24T10:49:20.889Z,18.45
2019-02-24T10:50:26.137Z,17.62
2019-02-24T10:51:37.197Z,16.80
2019-02-24T10:52:41.495Z,18.00
2019-02-24T10:53:47.050Z,17.17
2019-02-24T10:54:53.546Z,17.82
2019-02-24T10:55:57.646Z,18.17
2019-02-24T10:57:01.870Z,17.80
2019-02-24T10:58:06.616Z,17.07
2019-02-24T10:59:16.789Z,18.00
2019-02-24T11:00:23.158Z,18.37
2019-02-24T11:01:42.005Z,17.87
2019-02-24T11:02:42.109Z,18.15
2019-02-24T11:03:50.451Z,19.12
2019-02-24T11:04:54.916Z,17.80
2019-02-24T11:06:01.180Z,17.92
2019-02-24T11:07:10.406Z,18.50
2019-02-24T11:08:26.134Z,17.20
2019-02-24T11:09:34.058Z,17.07
2019-02-24T11:10:43.880Z,17.62
2019-02-24T11:11:50.937Z,18.10
2019-02-24T11:12:58.155Z,18.98
2019-02-24T11:14:07.467Z,17.60
2019-02-24T11:15:15.260Z,17.80
2019-02-24T11:16:24.268Z,17.85
2019-02-24T11:17:32.408Z,18.95
2019-02-24T11:18:40.112Z,18.95
2019-02-24T11:19:46.516Z,19.10
2019-02-24T11:20:50.788Z,17.60
2019-02-24T11:21:54.862Z,19.10
2019-02-24T11:23:03.531Z,18.52
2019-02-24T11:24:07.709Z,18.75
2019-02-24T11:25:13.342Z,18.42
2019-02-24T11:26:22.361Z,18.52
2019-02-24T11:27:29.164Z,17.65
2019-02-24T11:28:33.072Z,18.60
2019-02-24T11:29:37.026Z,19.20
2019-02-24T11:30:42.587Z,19.07
2019-02-24T11:31:46.636Z,18.48
2019-02-24T11:32:54.704Z,17.67
2019-02-24T11:34:00.498Z,17.60
2019-02-24T11:35:06.777Z,18.02
2019-02-24T11:36:11.497Z,18.05
2019-02-24T11:37:17.154Z,18.17
2019-02-24T11:38:24.800Z,19.52
2019-02-24T11:39:29.859Z,17.75
2019-02-24T11:40:34.222Z,18.00
2019-02-24T11:41:38.480Z,18.37
2019-02-24T11:42:43.427Z,18.40
2019-02-24T11:43:47.518Z,19.10
2019-02-24T11:44:52.790Z,18.40
2019-02-24T11:45:57.394Z,20.05
2019-02-24T11:47:01.604Z,19.25
2019-02-24T11:48:06.669Z,18.73
2019-02-24T11:49:12.068Z,17.82
2019-02-24T11:50:17.414Z,19.55
2019-02-24T11:51:22.803Z,18.55
2019-02-24T11:52:28.368Z,17.82
2019-02-24T11:53:32.351Z,17.37
2019-02-24T11:54:36.508Z,18.30
2019-02-24T11:55:41.930Z,21.40
2019-02-24T11:56:46.015Z,18.70
2019-02-24T11:57:50.592Z,18.87
2019-02-24T11:58:54.755Z,19.00
2019-02-24T12:00:00.217Z,19.10
2019-02-24T12:01:05.286Z,19.82
2019-02-24T12:02:10.210Z,17.35
2019-02-24T12:03:16.401Z,18.80
2019-02-24T12:04:22.276Z,17.73
2019-02-24T12:05:26.516Z,19.15
2019-02-24T12:06:30.518Z,19.42
2019-02-24T12:07:34.447Z,19.55
2019-02-24T12:08:41.736Z,19.75
2019-02-24T12:09:46.367Z,19.73
2019-02-24T12:10:50.511Z,18.65
2019-02-24T12:11:54.451Z,20.15
2019-02-24T12:12:59.765Z,20.25
2019-02-24T12:14:05.435Z,20.55
2019-02-24T12:15:13.704Z,19.87
2019-02-24T12:16:17.622Z,19.48
2019-02-24T12:17:26.090Z,21.02
2019-02-24T12:18:30.080Z,20.48
2019-02-24T12:19:35.726Z,20.82
2019-02-24T12:20:39.755Z,20.17
2019-02-24T12:21:44.339Z,20.43
2019-02-24T12:22:49.958Z,19.27
2019-02-24T12:23:53.874Z,20.35
2019-02-24T12:24:57.946Z,19.40
2019-02-24T12:26:03.857Z,22.00
2019-02-24T12:27:07.954Z,22.07
2019-02-24T12:28:11.998Z,20.00
2019-02-24T12:29:15.905Z,23.25
2019-02-24T12:30:19.861Z,20.27
2019-02-24T12:31:25.391Z,20.65
2019-02-24T12:32:29.342Z,21.57
2019-02-24T12:33:33.285Z,21.07
2019-02-24T12:34:37.393Z,20.32
2019-02-24T12:35:41.337Z,21.07
2019-02-24T12:36:47.514Z,21.48
2019-02-24T12:37:52.127Z,18.87
2019-02-24T12:38:56.432Z,21.35
2019-02-24T12:40:00.502Z,20.65
2019-02-24T12:41:04.647Z,18.85
2019-02-24T12:42:08.653Z,20.17
2019-02-24T12:43:13.667Z,20.27
2019-02-24T12:44:17.672Z,21.68
2019-02-24T12:45:25.147Z,21.10
2019-02-24T12:46:29.258Z,20.90
2019-02-24T12:47:33.187Z,21.80
2019-02-24T12:48:37.374Z,21.70
2019-02-24T12:49:41.432Z,20.35
2019-02-24T12:50:46.760Z,22.00
2019-02-24T12:51:51.017Z,21.20
2019-02-24T12:52:55.966Z,21.12
2019-02-24T12:54:00.464Z,21.62
2019-02-24T12:55:05.703Z,20.65
2019-02-24T12:56:10.793Z,21.33
2019-02-24T12:57:14.835Z,19.35
2019-02-24T12:58:19.864Z,20.68
2019-02-24T12:59:27.747Z,20.85
2019-02-24T13:00:33.109Z,21.45
2019-02-24T13:01:37.570Z,21.73
2019-02-24T13:02:43.434Z,21.35
2019-02-24T13:03:47.330Z,19.77
2019-02-24T13:04:51.256Z,21.48
2019-02-24T13:05:55.192Z,20.82
2019-02-24T13:06:59.202Z,20.00
2019-02-24T13:08:06.601Z,20.88
2019-02-24T13:09:17.102Z,21.85
2019-02-24T13:10:21.248Z,21.77
2019-02-24T13:11:25.921Z,22.65
2019-02-24T13:12:30.164Z,22.62
2019-02-24T13:13:34.214Z,20.55
2019-02-24T13:14:48.723Z,22.00
2019-02-24T13:15:53.692Z,22.87
2019-02-24T13:16:57.815Z,21.68
2019-02-24T13:18:02.000Z,21.95
2019-02-24T13:19:06.263Z,22.70
2019-02-24T13:20:11.310Z,26.48
2019-02-24T13:21:15.814Z,23.60
2019-02-24T13:22:20.540Z,21.90
2019-02-24T13:23:28.334Z,21.70
2019-02-24T13:24:33.549Z,22.25
2019-02-24T13:25:37.757Z,21.17
2019-02-24T13:26:44.910Z,22.85
2019-02-24T13:27:50.704Z,22.95
2019-02-24T13:28:57.574Z,23.62
2019-02-24T13:30:04.862Z,25.45
2019-02-24T13:31:12.960Z,25.12
2019-02-24T13:32:19.387Z,24.47
2019-02-24T13:33:44.910Z,23.60
2019-02-24T13:34:45.270Z,23.27
2019-02-24T13:35:57.705Z,23.05
2019-02-24T13:37:01.807Z,23.35
2019-02-24T13:38:46.143Z,23.85
2019-02-24T13:39:57.010Z,23.75
2019-02-24T13:41:08.050Z,24.25
2019-02-24T13:42:12.639Z,22.75
2019-02-24T13:43:20.049Z,24.00
2019-02-24T13:44:24.347Z,23.20
2019-02-24T13:45:34.425Z,21.87
2019-02-24T13:47:44.933Z,23.38
2019-02-24T13:48:48.857Z,23.92
2019-02-24T13:49:52.898Z,22.42
2019-02-24T13:50:56.822Z,24.07
2019-02-24T13:52:01.839Z,23.50
2019-02-24T13:53:05.984Z,24.50
2019-02-24T13:54:09.923Z,25.90
2019-02-24T13:55:14.870Z,24.60
2019-02-24T13:56:18.888Z,23.98
2019-02-24T13:57:23.002Z,24.15
2019-02-24T13:58:27.529Z,24.67
2019-02-24T13:59:35.619Z,25.15
2019-02-24T14:00:39.710Z,23.65
2019-02-24T14:01:44.849Z,23.15
2019-02-24T14:02:48.798Z,23.05
2019-02-24T14:03:55.603Z,23.12
2019-02-24T14:04:59.555Z,24.32
2019-02-24T14:06:04.702Z,24.10
2019-02-24T14:07:08.641Z,23.70
2019-02-24T14:08:13.216Z,22.32
2019-02-24T14:09:17.183Z,26.90